sensor_id;sensor_type;location;lat;lon;timestamp;P1;durP1;ratioP1;P2;durP2;ratioP2
56269;SDS011;42176;43.240;27.880;2023-09-07T00:00:48;7.53;;;4.43;;
56269;SDS011;42176;43.240;27.880;2023-09-07T00:02:49;9.50;;;4.90;;
56269;SDS011;42176;43.240;27.880;2023-09-07T00:04:49;9.57;;;4.97;;
56269;SDS011;42176;43.240;27.880;2023-09-07T00:06:50;10.93;;;4.73;;
56269;SDS011;42176;43.240;27.880;2023-09-07T00:08:50;9.40;;;4.57;;
56269;SDS011;42176;43.240;27.880;2023-09-07T00:10:51;9.33;;;4.67;;
56269;SDS011;42176;43.240;27.880;2023-09-07T00:12:52;7.03;;;4.82;;
56269;SDS011;42176;43.240;27.880;2023-09-07T00:14:53;5.75;;;4.13;;
56269;SDS011;42176;43.240;27.880;2023-09-07T00:16:54;6.78;;;4.57;;
56269;SDS011;42176;43.240;27.880;2023-09-07T00:18:54;9.77;;;4.57;;
56269;SDS011;42176;43.240;27.880;2023-09-07T00:20:55;23.47;;;6.27;;
56269;SDS011;42176;43.240;27.880;2023-09-07T00:22:55;5.90;;;4.63;;
56269;SDS011;42176;43.240;27.880;2023-09-07T00:24:58;8.63;;;5.13;;
56269;SDS011;42176;43.240;27.880;2023-09-07T00:26:59;11.30;;;4.78;;
56269;SDS011;42176;43.240;27.880;2023-09-07T00:28:59;8.40;;;4.90;;
56269;SDS011;42176;43.240;27.880;2023-09-07T00:31:00;8.43;;;4.63;;
56269;SDS011;42176;43.240;27.880;2023-09-07T00:33:01;6.90;;;4.57;;
56269;SDS011;42176;43.240;27.880;2023-09-07T00:35:01;4.97;;;3.83;;
56269;SDS011;42176;43.240;27.880;2023-09-07T00:37:02;8.45;;;5.40;;
56269;SDS011;42176;43.240;27.880;2023-09-07T00:39:03;7.50;;;4.90;;
56269;SDS011;42176;43.240;27.880;2023-09-07T00:41:03;6.47;;;4.67;;
56269;SDS011;42176;43.240;27.880;2023-09-07T00:43:04;9.35;;;4.57;;
56269;SDS011;42176;43.240;27.880;2023-09-07T00:45:05;8.37;;;4.60;;
56269;SDS011;42176;43.240;27.880;2023-09-07T00:47:06;7.68;;;5.15;;
56269;SDS011;42176;43.240;27.880;2023-09-07T00:49:06;8.03;;;5.13;;
56269;SDS011;42176;43.240;27.880;2023-09-07T00:51:07;5.27;;;4.60;;
56269;SDS011;42176;43.240;27.880;2023-09-07T00:53:07;8.97;;;4.87;;
56269;SDS011;42176;43.240;27.880;2023-09-07T00:55:08;7.33;;;4.80;;
56269;SDS011;42176;43.240;27.880;2023-09-07T00:57:09;8.95;;;5.22;;
56269;SDS011;42176;43.240;27.880;2023-09-07T00:59:11;7.63;;;4.90;;
56269;SDS011;42176;43.240;27.880;2023-09-07T01:03:12;8.05;;;4.88;;
56269;SDS011;42176;43.240;27.880;2023-09-07T01:05:12;7.17;;;5.10;;
56269;SDS011;42176;43.240;27.880;2023-09-07T01:07:26;8.27;;;4.70;;
56269;SDS011;42176;43.240;27.880;2023-09-07T01:09:43;9.07;;;5.03;;
56269;SDS011;42176;43.240;27.880;2023-09-07T01:11:47;8.82;;;6.28;;
56269;SDS011;42176;43.240;27.880;2023-09-07T01:13:47;6.97;;;4.87;;
56269;SDS011;42176;43.240;27.880;2023-09-07T01:15:48;7.63;;;4.90;;
56269;SDS011;42176;43.240;27.880;2023-09-07T01:17:48;9.33;;;4.60;;
56269;SDS011;42176;43.240;27.880;2023-09-07T01:19:49;7.50;;;5.05;;
56269;SDS011;42176;43.240;27.880;2023-09-07T01:21:51;8.13;;;4.93;;
56269;SDS011;42176;43.240;27.880;2023-09-07T01:23:51;7.47;;;5.50;;
56269;SDS011;42176;43.240;27.880;2023-09-07T01:25:52;8.03;;;4.50;;
56269;SDS011;42176;43.240;27.880;2023-09-07T01:29:54;11.47;;;5.17;;
56269;SDS011;42176;43.240;27.880;2023-09-07T01:31:55;6.00;;;4.28;;
56269;SDS011;42176;43.240;27.880;2023-09-07T01:33:57;10.10;;;6.32;;
56269;SDS011;42176;43.240;27.880;2023-09-07T01:35:57;11.83;;;5.90;;
56269;SDS011;42176;43.240;27.880;2023-09-07T01:37:58;9.93;;;5.23;;
56269;SDS011;42176;43.240;27.880;2023-09-07T01:39:58;12.03;;;5.17;;
56269;SDS011;42176;43.240;27.880;2023-09-07T01:42:00;8.50;;;5.28;;
56269;SDS011;42176;43.240;27.880;2023-09-07T01:44:01;8.10;;;4.80;;
56269;SDS011;42176;43.240;27.880;2023-09-07T01:46:04;6.75;;;5.28;;
56269;SDS011;42176;43.240;27.880;2023-09-07T01:48:08;7.93;;;4.97;;
56269;SDS011;42176;43.240;27.880;2023-09-07T01:50:12;9.05;;;5.82;;
56269;SDS011;42176;43.240;27.880;2023-09-07T01:52:14;10.90;;;6.00;;
56269;SDS011;42176;43.240;27.880;2023-09-07T01:54:17;11.93;;;5.75;;
56269;SDS011;42176;43.240;27.880;2023-09-07T01:56:18;6.83;;;5.00;;
56269;SDS011;42176;43.240;27.880;2023-09-07T01:58:18;7.97;;;5.67;;
56269;SDS011;42176;43.240;27.880;2023-09-07T02:00:19;12.60;;;6.20;;
56269;SDS011;42176;43.240;27.880;2023-09-07T02:02:19;8.53;;;5.90;;
56269;SDS011;42176;43.240;27.880;2023-09-07T02:04:19;9.67;;;5.33;;
56269;SDS011;42176;43.240;27.880;2023-09-07T02:06:20;8.67;;;5.77;;
56269;SDS011;42176;43.240;27.880;2023-09-07T02:08:20;8.30;;;5.50;;
56269;SDS011;42176;43.240;27.880;2023-09-07T02:10:21;7.73;;;5.33;;
56269;SDS011;42176;43.240;27.880;2023-09-07T02:12:21;9.87;;;5.50;;
56269;SDS011;42176;43.240;27.880;2023-09-07T02:14:22;12.47;;;5.70;;
56269;SDS011;42176;43.240;27.880;2023-09-07T02:16:22;10.13;;;5.70;;
56269;SDS011;42176;43.240;27.880;2023-09-07T02:18:23;10.33;;;6.40;;
56269;SDS011;42176;43.240;27.880;2023-09-07T02:20:23;7.50;;;6.00;;
56269;SDS011;42176;43.240;27.880;2023-09-07T02:22:24;6.93;;;5.60;;
56269;SDS011;42176;43.240;27.880;2023-09-07T02:24:24;10.80;;;6.33;;
56269;SDS011;42176;43.240;27.880;2023-09-07T02:26:25;13.87;;;6.30;;
56269;SDS011;42176;43.240;27.880;2023-09-07T02:28:25;11.80;;;5.97;;
56269;SDS011;42176;43.240;27.880;2023-09-07T02:30:26;8.50;;;6.10;;
56269;SDS011;42176;43.240;27.880;2023-09-07T02:32:26;9.07;;;6.43;;
56269;SDS011;42176;43.240;27.880;2023-09-07T02:34:27;10.43;;;6.50;;
56269;SDS011;42176;43.240;27.880;2023-09-07T02:36:28;9.20;;;6.10;;
56269;SDS011;42176;43.240;27.880;2023-09-07T02:38:29;9.57;;;6.47;;
56269;SDS011;42176;43.240;27.880;2023-09-07T02:40:30;10.52;;;6.13;;
56269;SDS011;42176;43.240;27.880;2023-09-07T02:42:30;14.83;;;6.63;;
56269;SDS011;42176;43.240;27.880;2023-09-07T02:44:31;9.37;;;5.90;;
56269;SDS011;42176;43.240;27.880;2023-09-07T02:46:31;12.90;;;6.47;;
56269;SDS011;42176;43.240;27.880;2023-09-07T02:48:32;9.60;;;6.10;;
56269;SDS011;42176;43.240;27.880;2023-09-07T02:53:03;8.93;;;6.28;;
56269;SDS011;42176;43.240;27.880;2023-09-07T02:55:04;10.75;;;6.50;;
56269;SDS011;42176;43.240;27.880;2023-09-07T02:57:06;10.48;;;6.38;;
56269;SDS011;42176;43.240;27.880;2023-09-07T02:59:06;11.90;;;6.73;;
56269;SDS011;42176;43.240;27.880;2023-09-07T03:01:07;7.53;;;5.60;;
56269;SDS011;42176;43.240;27.880;2023-09-07T03:05:09;12.37;;;6.43;;
56269;SDS011;42176;43.240;27.880;2023-09-07T03:07:10;10.57;;;6.13;;
56269;SDS011;42176;43.240;27.880;2023-09-07T03:09:10;10.07;;;6.70;;
56269;SDS011;42176;43.240;27.880;2023-09-07T03:11:11;10.98;;;6.82;;
56269;SDS011;42176;43.240;27.880;2023-09-07T03:13:12;9.57;;;5.70;;
56269;SDS011;42176;43.240;27.880;2023-09-07T03:15:12;12.43;;;7.40;;
56269;SDS011;42176;43.240;27.880;2023-09-07T03:17:13;10.97;;;5.70;;
56269;SDS011;42176;43.240;27.880;2023-09-07T03:19:13;11.60;;;5.40;;
56269;SDS011;42176;43.240;27.880;2023-09-07T03:21:14;10.70;;;5.80;;
56269;SDS011;42176;43.240;27.880;2023-09-07T03:23:32;10.50;;;6.40;;
56269;SDS011;42176;43.240;27.880;2023-09-07T03:26:05;7.85;;;5.53;;
56269;SDS011;42176;43.240;27.880;2023-09-07T03:28:05;7.50;;;5.93;;
56269;SDS011;42176;43.240;27.880;2023-09-07T03:30:06;12.73;;;5.57;;
56269;SDS011;42176;43.240;27.880;2023-09-07T03:34:08;7.60;;;5.30;;
56269;SDS011;42176;43.240;27.880;2023-09-07T03:36:09;8.33;;;5.33;;
56269;SDS011;42176;43.240;27.880;2023-09-07T03:40:10;6.97;;;5.25;;
56269;SDS011;42176;43.240;27.880;2023-09-07T03:42:11;8.17;;;4.43;;
56269;SDS011;42176;43.240;27.880;2023-09-07T03:44:11;7.97;;;5.40;;
56269;SDS011;42176;43.240;27.880;2023-09-07T03:46:12;10.77;;;5.43;;
56269;SDS011;42176;43.240;27.880;2023-09-07T03:48:12;8.50;;;5.17;;
56269;SDS011;42176;43.240;27.880;2023-09-07T03:50:13;12.77;;;5.57;;
56269;SDS011;42176;43.240;27.880;2023-09-07T03:52:13;7.83;;;5.47;;
56269;SDS011;42176;43.240;27.880;2023-09-07T03:54:13;11.13;;;5.47;;
56269;SDS011;42176;43.240;27.880;2023-09-07T03:56:14;11.27;;;5.37;;
56269;SDS011;42176;43.240;27.880;2023-09-07T03:58:14;6.83;;;4.80;;
56269;SDS011;42176;43.240;27.880;2023-09-07T04:00:15;6.77;;;4.53;;
56269;SDS011;42176;43.240;27.880;2023-09-07T04:02:16;10.88;;;5.05;;
56269;SDS011;42176;43.240;27.880;2023-09-07T04:04:17;11.40;;;4.65;;
56269;SDS011;42176;43.240;27.880;2023-09-07T04:06:18;9.37;;;5.47;;
56269;SDS011;42176;43.240;27.880;2023-09-07T04:08:19;14.13;;;4.85;;
56269;SDS011;42176;43.240;27.880;2023-09-07T04:10:20;8.50;;;4.67;;
56269;SDS011;42176;43.240;27.880;2023-09-07T04:12:20;7.07;;;4.80;;
56269;SDS011;42176;43.240;27.880;2023-09-07T04:14:20;8.00;;;4.97;;
56269;SDS011;42176;43.240;27.880;2023-09-07T04:16:21;11.70;;;4.87;;
56269;SDS011;42176;43.240;27.880;2023-09-07T04:18:21;9.90;;;4.70;;
56269;SDS011;42176;43.240;27.880;2023-09-07T04:20:22;8.70;;;4.20;;
56269;SDS011;42176;43.240;27.880;2023-09-07T04:22:23;6.57;;;4.45;;
56269;SDS011;42176;43.240;27.880;2023-09-07T04:24:24;10.03;;;4.50;;
56269;SDS011;42176;43.240;27.880;2023-09-07T04:26:24;7.97;;;4.67;;
56269;SDS011;42176;43.240;27.880;2023-09-07T04:28:25;8.57;;;4.32;;
56269;SDS011;42176;43.240;27.880;2023-09-07T04:30:26;7.97;;;4.80;;
56269;SDS011;42176;43.240;27.880;2023-09-07T04:32:27;8.63;;;4.95;;
56269;SDS011;42176;43.240;27.880;2023-09-07T04:34:27;8.20;;;4.37;;
56269;SDS011;42176;43.240;27.880;2023-09-07T04:36:28;6.73;;;5.03;;
56269;SDS011;42176;43.240;27.880;2023-09-07T04:38:28;8.17;;;4.93;;
56269;SDS011;42176;43.240;27.880;2023-09-07T04:40:29;9.77;;;4.13;;
56269;SDS011;42176;43.240;27.880;2023-09-07T04:42:29;7.43;;;4.33;;
56269;SDS011;42176;43.240;27.880;2023-09-07T04:44:30;6.77;;;4.10;;
56269;SDS011;42176;43.240;27.880;2023-09-07T04:46:30;6.67;;;4.00;;
56269;SDS011;42176;43.240;27.880;2023-09-07T04:48:31;7.87;;;3.87;;
56269;SDS011;42176;43.240;27.880;2023-09-07T04:50:32;5.85;;;4.13;;
56269;SDS011;42176;43.240;27.880;2023-09-07T04:52:32;6.47;;;4.50;;
56269;SDS011;42176;43.240;27.880;2023-09-07T04:54:34;6.05;;;4.00;;
56269;SDS011;42176;43.240;27.880;2023-09-07T04:56:35;9.88;;;4.95;;
56269;SDS011;42176;43.240;27.880;2023-09-07T04:58:37;7.45;;;4.38;;
56269;SDS011;42176;43.240;27.880;2023-09-07T05:00:38;7.97;;;4.82;;
56269;SDS011;42176;43.240;27.880;2023-09-07T05:02:46;7.25;;;4.38;;
56269;SDS011;42176;43.240;27.880;2023-09-07T05:04:47;8.00;;;4.00;;
56269;SDS011;42176;43.240;27.880;2023-09-07T05:06:47;6.25;;;3.90;;
56269;SDS011;42176;43.240;27.880;2023-09-07T05:08:48;10.13;;;4.43;;
56269;SDS011;42176;43.240;27.880;2023-09-07T05:10:48;8.75;;;4.25;;
56269;SDS011;42176;43.240;27.880;2023-09-07T05:12:49;6.93;;;3.95;;
56269;SDS011;42176;43.240;27.880;2023-09-07T05:14:49;5.43;;;3.83;;
56269;SDS011;42176;43.240;27.880;2023-09-07T05:16:50;5.18;;;4.00;;
56269;SDS011;42176;43.240;27.880;2023-09-07T05:18:50;5.65;;;4.20;;
56269;SDS011;42176;43.240;27.880;2023-09-07T05:20:51;8.43;;;3.53;;
56269;SDS011;42176;43.240;27.880;2023-09-07T05:23:06;5.75;;;4.28;;
56269;SDS011;42176;43.240;27.880;2023-09-07T05:25:26;42.60;;;6.30;;
56269;SDS011;42176;43.240;27.880;2023-09-07T05:27:26;12.40;;;3.97;;
56269;SDS011;42176;43.240;27.880;2023-09-07T05:29:27;7.30;;;4.03;;
56269;SDS011;42176;43.240;27.880;2023-09-07T05:31:27;6.40;;;3.95;;
56269;SDS011;42176;43.240;27.880;2023-09-07T05:35:28;6.18;;;3.42;;
56269;SDS011;42176;43.240;27.880;2023-09-07T05:37:32;4.60;;;3.30;;
56269;SDS011;42176;43.240;27.880;2023-09-07T05:39:32;6.13;;;3.85;;
56269;SDS011;42176;43.240;27.880;2023-09-07T05:43:33;6.82;;;3.42;;
56269;SDS011;42176;43.240;27.880;2023-09-07T05:47:36;7.45;;;3.95;;
56269;SDS011;42176;43.240;27.880;2023-09-07T05:51:37;9.20;;;4.40;;
56269;SDS011;42176;43.240;27.880;2023-09-07T05:55:39;5.90;;;3.97;;
56269;SDS011;42176;43.240;27.880;2023-09-07T05:59:40;6.57;;;3.77;;
56269;SDS011;42176;43.240;27.880;2023-09-07T06:03:41;5.20;;;4.10;;
56269;SDS011;42176;43.240;27.880;2023-09-07T06:07:43;5.10;;;3.97;;
56269;SDS011;42176;43.240;27.880;2023-09-07T06:09:43;5.72;;;4.03;;
56269;SDS011;42176;43.240;27.880;2023-09-07T06:11:44;9.38;;;3.88;;
56269;SDS011;42176;43.240;27.880;2023-09-07T06:13:44;5.45;;;4.13;;
56269;SDS011;42176;43.240;27.880;2023-09-07T06:15:46;7.72;;;4.00;;
56269;SDS011;42176;43.240;27.880;2023-09-07T06:17:47;5.95;;;3.70;;
56269;SDS011;42176;43.240;27.880;2023-09-07T06:19:48;4.13;;;3.72;;
56269;SDS011;42176;43.240;27.880;2023-09-07T06:21:48;9.65;;;3.67;;
56269;SDS011;42176;43.240;27.880;2023-09-07T06:23:49;4.55;;;3.50;;
56269;SDS011;42176;43.240;27.880;2023-09-07T06:25:50;8.43;;;3.67;;
56269;SDS011;42176;43.240;27.880;2023-09-07T06:27:50;4.78;;;3.50;;
56269;SDS011;42176;43.240;27.880;2023-09-07T06:29:51;9.02;;;3.72;;
56269;SDS011;42176;43.240;27.880;2023-09-07T06:31:52;9.50;;;3.50;;
56269;SDS011;42176;43.240;27.880;2023-09-07T06:33:52;6.40;;;3.75;;
56269;SDS011;42176;43.240;27.880;2023-09-07T06:35:53;5.18;;;3.17;;
56269;SDS011;42176;43.240;27.880;2023-09-07T06:37:53;5.03;;;3.70;;
56269;SDS011;42176;43.240;27.880;2023-09-07T06:39:54;3.58;;;3.25;;
56269;SDS011;42176;43.240;27.880;2023-09-07T06:41:54;3.28;;;2.95;;
56269;SDS011;42176;43.240;27.880;2023-09-07T06:43:54;4.68;;;2.97;;
56269;SDS011;42176;43.240;27.880;2023-09-07T06:45:55;8.40;;;3.40;;
56269;SDS011;42176;43.240;27.880;2023-09-07T06:48:03;3.85;;;3.25;;
56269;SDS011;42176;43.240;27.880;2023-09-07T06:50:04;4.57;;;3.67;;
56269;SDS011;42176;43.240;27.880;2023-09-07T06:52:05;5.07;;;3.65;;
56269;SDS011;42176;43.240;27.880;2023-09-07T06:54:06;7.22;;;3.30;;
56269;SDS011;42176;43.240;27.880;2023-09-07T06:56:06;3.95;;;3.10;;
56269;SDS011;42176;43.240;27.880;2023-09-07T06:58:07;6.05;;;3.67;;
56269;SDS011;42176;43.240;27.880;2023-09-07T07:00:08;5.20;;;3.55;;
56269;SDS011;42176;43.240;27.880;2023-09-07T07:02:09;9.70;;;3.90;;
56269;SDS011;42176;43.240;27.880;2023-09-07T07:04:09;7.72;;;3.67;;
56269;SDS011;42176;43.240;27.880;2023-09-07T07:06:10;3.67;;;3.30;;
56269;SDS011;42176;43.240;27.880;2023-09-07T07:08:10;5.55;;;3.30;;
56269;SDS011;42176;43.240;27.880;2023-09-07T07:10:11;5.30;;;3.33;;
56269;SDS011;42176;43.240;27.880;2023-09-07T07:12:11;6.05;;;3.38;;
56269;SDS011;42176;43.240;27.880;2023-09-07T07:14:12;4.30;;;3.40;;
56269;SDS011;42176;43.240;27.880;2023-09-07T07:16:13;7.13;;;3.63;;
56269;SDS011;42176;43.240;27.880;2023-09-07T07:18:13;5.65;;;3.72;;
56269;SDS011;42176;43.240;27.880;2023-09-07T07:20:14;8.65;;;3.88;;
56269;SDS011;42176;43.240;27.880;2023-09-07T07:22:14;6.32;;;3.22;;
56269;SDS011;42176;43.240;27.880;2023-09-07T07:24:15;4.53;;;3.05;;
56269;SDS011;42176;43.240;27.880;2023-09-07T07:26:16;4.55;;;2.85;;
56269;SDS011;42176;43.240;27.880;2023-09-07T07:28:17;3.40;;;3.20;;
56269;SDS011;42176;43.240;27.880;2023-09-07T07:30:18;6.70;;;3.67;;
56269;SDS011;42176;43.240;27.880;2023-09-07T07:32:19;7.03;;;3.75;;
56269;SDS011;42176;43.240;27.880;2023-09-07T07:34:19;5.13;;;3.55;;
56269;SDS011;42176;43.240;27.880;2023-09-07T07:36:19;6.93;;;3.10;;
56269;SDS011;42176;43.240;27.880;2023-09-07T07:38:20;4.35;;;3.22;;
56269;SDS011;42176;43.240;27.880;2023-09-07T07:40:21;10.02;;;3.45;;
56269;SDS011;42176;43.240;27.880;2023-09-07T07:42:21;7.80;;;3.63;;
56269;SDS011;42176;43.240;27.880;2023-09-07T07:44:22;5.82;;;4.18;;
56269;SDS011;42176;43.240;27.880;2023-09-07T07:46:22;5.35;;;3.70;;
56269;SDS011;42176;43.240;27.880;2023-09-07T07:48:23;3.88;;;3.50;;
56269;SDS011;42176;43.240;27.880;2023-09-07T07:50:23;7.22;;;3.92;;
56269;SDS011;42176;43.240;27.880;2023-09-07T07:52:24;5.53;;;3.70;;
56269;SDS011;42176;43.240;27.880;2023-09-07T07:54:24;8.13;;;3.85;;
56269;SDS011;42176;43.240;27.880;2023-09-07T07:56:25;5.50;;;3.30;;
56269;SDS011;42176;43.240;27.880;2023-09-07T07:58:25;4.97;;;4.45;;
56269;SDS011;42176;43.240;27.880;2023-09-07T08:00:26;3.92;;;2.72;;
56269;SDS011;42176;43.240;27.880;2023-09-07T08:02:26;4.93;;;3.30;;
56269;SDS011;42176;43.240;27.880;2023-09-07T08:04:28;5.45;;;3.17;;
56269;SDS011;42176;43.240;27.880;2023-09-07T08:06:29;4.70;;;3.58;;
56269;SDS011;42176;43.240;27.880;2023-09-07T08:08:30;4.45;;;2.50;;
56269;SDS011;42176;43.240;27.880;2023-09-07T08:10:33;4.43;;;3.30;;
56269;SDS011;42176;43.240;27.880;2023-09-07T08:12:34;5.05;;;2.97;;
56269;SDS011;42176;43.240;27.880;2023-09-07T08:14:35;7.90;;;3.58;;
56269;SDS011;42176;43.240;27.880;2023-09-07T08:16:35;6.57;;;3.53;;
56269;SDS011;42176;43.240;27.880;2023-09-07T08:18:36;6.53;;;3.85;;
56269;SDS011;42176;43.240;27.880;2023-09-07T08:20:37;11.73;;;3.00;;
56269;SDS011;42176;43.240;27.880;2023-09-07T08:22:40;10.90;;;4.20;;
56269;SDS011;42176;43.240;27.880;2023-09-07T08:24:42;5.55;;;3.70;;
56269;SDS011;42176;43.240;27.880;2023-09-07T08:26:44;10.07;;;3.63;;
56269;SDS011;42176;43.240;27.880;2023-09-07T08:28:44;5.35;;;3.58;;
56269;SDS011;42176;43.240;27.880;2023-09-07T08:30:46;5.90;;;3.85;;
56269;SDS011;42176;43.240;27.880;2023-09-07T08:32:48;4.88;;;3.88;;
56269;SDS011;42176;43.240;27.880;2023-09-07T08:34:51;10.73;;;3.90;;
56269;SDS011;42176;43.240;27.880;2023-09-07T08:36:56;8.02;;;4.00;;
56269;SDS011;42176;43.240;27.880;2023-09-07T08:39:02;5.07;;;3.75;;
56269;SDS011;42176;43.240;27.880;2023-09-07T08:41:12;5.03;;;3.83;;
56269;SDS011;42176;43.240;27.880;2023-09-07T08:43:14;3.53;;;3.22;;
56269;SDS011;42176;43.240;27.880;2023-09-07T08:45:15;4.85;;;2.60;;
56269;SDS011;42176;43.240;27.880;2023-09-07T08:47:20;11.55;;;3.97;;
56269;SDS011;42176;43.240;27.880;2023-09-07T08:49:22;4.60;;;2.65;;
56269;SDS011;42176;43.240;27.880;2023-09-07T08:51:25;5.70;;;3.33;;
56269;SDS011;42176;43.240;27.880;2023-09-07T08:53:28;14.50;;;3.70;;
56269;SDS011;42176;43.240;27.880;2023-09-07T08:55:31;6.97;;;3.47;;
56269;SDS011;42176;43.240;27.880;2023-09-07T08:57:32;5.18;;;3.65;;
56269;SDS011;42176;43.240;27.880;2023-09-07T08:59:32;7.45;;;3.60;;
56269;SDS011;42176;43.240;27.880;2023-09-07T09:01:33;4.68;;;3.72;;
56269;SDS011;42176;43.240;27.880;2023-09-07T09:03:34;7.45;;;3.80;;
56269;SDS011;42176;43.240;27.880;2023-09-07T09:05:36;6.88;;;3.40;;
56269;SDS011;42176;43.240;27.880;2023-09-07T09:07:39;6.63;;;3.38;;
56269;SDS011;42176;43.240;27.880;2023-09-07T09:09:39;6.05;;;3.22;;
56269;SDS011;42176;43.240;27.880;2023-09-07T09:13:40;6.50;;;3.17;;
56269;SDS011;42176;43.240;27.880;2023-09-07T09:17:42;9.20;;;3.47;;
56269;SDS011;42176;43.240;27.880;2023-09-07T09:21:42;7.05;;;3.00;;
56269;SDS011;42176;43.240;27.880;2023-09-07T09:23:44;6.93;;;3.55;;
56269;SDS011;42176;43.240;27.880;2023-09-07T09:25:49;5.90;;;3.70;;
56269;SDS011;42176;43.240;27.880;2023-09-07T09:27:50;4.10;;;3.10;;
56269;SDS011;42176;43.240;27.880;2023-09-07T09:29:50;4.68;;;2.40;;
56269;SDS011;42176;43.240;27.880;2023-09-07T09:31:51;6.93;;;3.45;;
56269;SDS011;42176;43.240;27.880;2023-09-07T09:33:52;10.27;;;4.22;;
56269;SDS011;42176;43.240;27.880;2023-09-07T09:35:53;6.45;;;3.40;;
56269;SDS011;42176;43.240;27.880;2023-09-07T09:37:54;5.60;;;3.28;;
56269;SDS011;42176;43.240;27.880;2023-09-07T09:39:55;6.60;;;3.17;;
56269;SDS011;42176;43.240;27.880;2023-09-07T09:41:57;5.70;;;3.33;;
56269;SDS011;42176;43.240;27.880;2023-09-07T09:43:58;7.45;;;3.85;;
56269;SDS011;42176;43.240;27.880;2023-09-07T09:46:00;6.60;;;3.20;;
56269;SDS011;42176;43.240;27.880;2023-09-07T09:48:01;7.43;;;3.85;;
56269;SDS011;42176;43.240;27.880;2023-09-07T09:50:03;4.88;;;2.83;;
56269;SDS011;42176;43.240;27.880;2023-09-07T09:52:06;8.98;;;3.40;;
56269;SDS011;42176;43.240;27.880;2023-09-07T09:54:08;4.93;;;4.00;;
56269;SDS011;42176;43.240;27.880;2023-09-07T09:56:10;7.57;;;4.32;;
56269;SDS011;42176;43.240;27.880;2023-09-07T10:00:11;4.70;;;3.10;;
56269;SDS011;42176;43.240;27.880;2023-09-07T10:02:26;7.32;;;3.30;;
56269;SDS011;42176;43.240;27.880;2023-09-07T10:04:26;6.45;;;3.63;;
56269;SDS011;42176;43.240;27.880;2023-09-07T10:06:29;7.95;;;3.80;;
56269;SDS011;42176;43.240;27.880;2023-09-07T10:08:29;4.40;;;2.88;;
56269;SDS011;42176;43.240;27.880;2023-09-07T10:10:34;4.90;;;3.65;;
56269;SDS011;42176;43.240;27.880;2023-09-07T10:12:43;3.60;;;3.05;;
56269;SDS011;42176;43.240;27.880;2023-09-07T10:14:44;6.65;;;3.72;;
56269;SDS011;42176;43.240;27.880;2023-09-07T10:16:53;9.45;;;3.60;;
56269;SDS011;42176;43.240;27.880;2023-09-07T10:19:13;11.88;;;4.05;;
56269;SDS011;42176;43.240;27.880;2023-09-07T10:23:46;6.33;;;2.93;;
56269;SDS011;42176;43.240;27.880;2023-09-07T10:25:52;6.25;;;3.63;;
56269;SDS011;42176;43.240;27.880;2023-09-07T10:27:53;8.32;;;3.55;;
56269;SDS011;42176;43.240;27.880;2023-09-07T10:29:54;7.05;;;3.20;;
56269;SDS011;42176;43.240;27.880;2023-09-07T10:31:54;10.95;;;4.13;;
56269;SDS011;42176;43.240;27.880;2023-09-07T10:36:42;6.07;;;3.17;;
56269;SDS011;42176;43.240;27.880;2023-09-07T10:38:54;11.73;;;3.28;;
56269;SDS011;42176;43.240;27.880;2023-09-07T10:40:56;3.20;;;2.30;;
56269;SDS011;42176;43.240;27.880;2023-09-07T10:43:01;4.82;;;2.92;;
56269;SDS011;42176;43.240;27.880;2023-09-07T10:45:11;8.70;;;2.97;;
56269;SDS011;42176;43.240;27.880;2023-09-07T10:47:15;5.90;;;3.03;;
56269;SDS011;42176;43.240;27.880;2023-09-07T10:49:16;6.32;;;3.70;;
56269;SDS011;42176;43.240;27.880;2023-09-07T10:51:18;10.55;;;3.65;;
56269;SDS011;42176;43.240;27.880;2023-09-07T10:53:29;7.95;;;3.20;;
56269;SDS011;42176;43.240;27.880;2023-09-07T10:55:36;4.80;;;3.78;;
56269;SDS011;42176;43.240;27.880;2023-09-07T10:57:45;8.30;;;4.00;;
56269;SDS011;42176;43.240;27.880;2023-09-07T10:59:46;7.32;;;3.13;;
56269;SDS011;42176;43.240;27.880;2023-09-07T11:01:47;2.85;;;2.50;;
56269;SDS011;42176;43.240;27.880;2023-09-07T11:03:48;8.48;;;3.30;;
56269;SDS011;42176;43.240;27.880;2023-09-07T11:05:48;4.72;;;3.15;;
56269;SDS011;42176;43.240;27.880;2023-09-07T11:07:51;3.30;;;2.88;;
56269;SDS011;42176;43.240;27.880;2023-09-07T11:09:52;5.10;;;3.65;;
56269;SDS011;42176;43.240;27.880;2023-09-07T11:11:53;2.80;;;2.60;;
56269;SDS011;42176;43.240;27.880;2023-09-07T11:13:53;5.88;;;3.17;;
56269;SDS011;42176;43.240;27.880;2023-09-07T11:15:57;9.38;;;3.17;;
56269;SDS011;42176;43.240;27.880;2023-09-07T11:18:05;4.95;;;2.92;;
56269;SDS011;42176;43.240;27.880;2023-09-07T11:20:07;8.13;;;2.80;;
56269;SDS011;42176;43.240;27.880;2023-09-07T11:22:10;4.15;;;2.60;;
56269;SDS011;42176;43.240;27.880;2023-09-07T11:26:12;7.53;;;3.90;;
56269;SDS011;42176;43.240;27.880;2023-09-07T11:28:15;3.92;;;3.03;;
56269;SDS011;42176;43.240;27.880;2023-09-07T11:30:19;4.55;;;3.08;;
56269;SDS011;42176;43.240;27.880;2023-09-07T11:32:19;3.22;;;2.92;;
56269;SDS011;42176;43.240;27.880;2023-09-07T11:34:21;5.25;;;3.08;;
56269;SDS011;42176;43.240;27.880;2023-09-07T11:36:22;11.25;;;3.47;;
56269;SDS011;42176;43.240;27.880;2023-09-07T11:38:30;5.78;;;2.85;;
56269;SDS011;42176;43.240;27.880;2023-09-07T11:42:36;8.77;;;2.40;;
56269;SDS011;42176;43.240;27.880;2023-09-07T11:44:37;4.55;;;2.78;;
56269;SDS011;42176;43.240;27.880;2023-09-07T11:46:37;3.38;;;2.85;;
56269;SDS011;42176;43.240;27.880;2023-09-07T11:48:38;3.60;;;2.67;;
56269;SDS011;42176;43.240;27.880;2023-09-07T11:50:38;7.32;;;3.08;;
56269;SDS011;42176;43.240;27.880;2023-09-07T11:52:40;6.72;;;3.20;;
56269;SDS011;42176;43.240;27.880;2023-09-07T11:54:40;8.52;;;4.00;;
56269;SDS011;42176;43.240;27.880;2023-09-07T11:56:41;5.38;;;3.22;;
56269;SDS011;42176;43.240;27.880;2023-09-07T11:58:43;3.53;;;2.97;;
56269;SDS011;42176;43.240;27.880;2023-09-07T12:00:44;3.45;;;2.90;;
56269;SDS011;42176;43.240;27.880;2023-09-07T12:02:44;4.07;;;2.95;;
56269;SDS011;42176;43.240;27.880;2023-09-07T12:04:45;2.55;;;2.15;;
56269;SDS011;42176;43.240;27.880;2023-09-07T12:06:45;5.63;;;2.97;;
56269;SDS011;42176;43.240;27.880;2023-09-07T12:09:01;5.97;;;2.75;;
56269;SDS011;42176;43.240;27.880;2023-09-07T12:11:03;3.63;;;2.53;;
56269;SDS011;42176;43.240;27.880;2023-09-07T12:13:03;6.55;;;3.00;;
56269;SDS011;42176;43.240;27.880;2023-09-07T12:15:05;7.93;;;3.25;;
56269;SDS011;42176;43.240;27.880;2023-09-07T12:17:06;4.18;;;3.08;;
56269;SDS011;42176;43.240;27.880;2023-09-07T12:19:07;4.65;;;2.95;;
56269;SDS011;42176;43.240;27.880;2023-09-07T12:21:07;4.82;;;2.42;;
56269;SDS011;42176;43.240;27.880;2023-09-07T12:23:08;3.58;;;2.72;;
56269;SDS011;42176;43.240;27.880;2023-09-07T12:25:08;7.18;;;3.28;;
56269;SDS011;42176;43.240;27.880;2023-09-07T12:27:10;6.45;;;2.55;;
56269;SDS011;42176;43.240;27.880;2023-09-07T12:29:11;8.13;;;3.20;;
56269;SDS011;42176;43.240;27.880;2023-09-07T12:31:11;11.93;;;2.85;;
56269;SDS011;42176;43.240;27.880;2023-09-07T12:33:12;4.35;;;2.90;;
56269;SDS011;42176;43.240;27.880;2023-09-07T12:35:12;12.60;;;3.13;;
56269;SDS011;42176;43.240;27.880;2023-09-07T12:37:13;5.65;;;2.83;;
56269;SDS011;42176;43.240;27.880;2023-09-07T12:39:13;3.75;;;2.67;;
56269;SDS011;42176;43.240;27.880;2023-09-07T12:41:14;2.95;;;2.40;;
56269;SDS011;42176;43.240;27.880;2023-09-07T12:43:15;9.50;;;3.20;;
56269;SDS011;42176;43.240;27.880;2023-09-07T12:45:16;4.72;;;2.67;;
56269;SDS011;42176;43.240;27.880;2023-09-07T12:47:16;7.68;;;3.00;;